Time;durP1;ratioP1;P1;durP2;ratioP2;P2;SDS_P1;SDS_P2;PMS_P1;PMS_P2;Temp;Humidity;BMP_temperature;BMP_pressure;BME280_temperature;BME280_humidity;BME280_pressure;Samples;Min_cycle;Max_cycle;Signal;HPM_P1;HPM_P2
2023/04/07 00:01:38;;;;;;;18.37;10.67;;;;;;;3.08;71.91;94340.06;5110896;28;20184;-78
2023/04/07 00:04:05;;;;;;;15.47;10.47;;;;;;;3.07;71.95;94343.59;5112116;28;20188;-78
2023/04/07 00:06:32;;;;;;;17.90;11.17;;;;;;;3.10;72.29;94350.94;5111286;28;20188;-78
2023/04/07 00:08:59;;;;;;;15.53;10.70;;;;;;;3.07;71.90;94335.09;5111454;28;20192;-79
2023/04/07 00:11:26;;;;;;;15.23;10.20;;;;;;;3.07;72.15;94324.84;5111127;28;20223;-79
2023/04/07 00:13:52;;;;;;;15.13;10.60;;;;;;;3.10;72.40;94337.31;5111129;28;20677;-79
2023/04/07 00:16:21;;;;;;;15.37;10.43;;;;;;;3.10;72.32;94329.63;5110924;28;20241;-78
2023/04/07 00:18:48;;;;;;;17.27;11.00;;;;;;;3.06;72.27;94326.59;5110903;28;20569;-78
2023/04/07 00:21:15;;;;;;;17.40;11.40;;;;;;;3.04;72.35;94326.00;5110226;28;20196;-79
2023/04/07 00:23:42;;;;;;;18.77;10.83;;;;;;;3.08;72.32;94329.81;5110670;28;20282;-80
2023/04/07 00:26:09;;;;;;;16.37;11.17;;;;;;;3.03;72.09;94329.53;5111546;28;20241;-79
2023/04/07 00:28:36;;;;;;;17.53;10.83;;;;;;;2.94;72.79;94333.19;5111196;28;20685;-79
2023/04/07 00:31:04;;;;;;;17.00;10.50;;;;;;;2.91;72.98;94332.75;5111267;28;20196;-80
2023/04/07 00:33:32;;;;;;;18.20;11.70;;;;;;;2.92;73.10;94330.00;5111082;28;20184;-80
2023/04/07 00:35:59;;;;;;;18.47;11.47;;;;;;;2.99;72.08;94327.53;5111187;28;20195;-78
2023/04/07 00:38:26;;;;;;;16.20;10.93;;;;;;;2.98;72.08;94323.34;5111085;28;20192;-78
2023/04/07 00:40:58;;;;;;;20.23;10.70;;;;;;;2.99;71.80;94330.88;5111127;28;20200;-79
2023/04/07 00:43:25;;;;;;;14.53;9.80;;;;;;;2.97;70.84;94325.16;5110891;28;20184;-79
2023/04/07 00:45:52;;;;;;;16.90;10.47;;;;;;;2.96;71.51;94323.53;5110799;28;20279;-78
2023/04/07 00:48:20;;;;;;;18.20;10.97;;;;;;;2.99;71.14;94327.53;5110778;28;20223;-80
2023/04/07 00:50:48;;;;;;;15.73;10.13;;;;;;;3.02;71.08;94338.22;5110647;28;20237;-80
2023/04/07 00:53:15;;;;;;;17.33;10.60;;;;;;;3.05;70.81;94329.38;5111304;28;20235;-80
2023/04/07 00:55:42;;;;;;;17.13;10.40;;;;;;;3.01;70.92;94328.94;5111044;28;20184;-80
2023/04/07 00:58:09;;;;;;;18.50;9.70;;;;;;;3.01;70.87;94323.78;5110887;28;20196;-80
2023/04/07 01:00:48;;;;;;;18.67;10.67;;;;;;;3.02;70.94;94332.28;5111370;28;20593;-79
2023/04/07 01:03:20;;;;;;;19.07;11.03;;;;;;;3.02;70.78;94325.41;5106124;28;20658;-79
2023/04/07 01:05:55;;;;;;;16.47;9.93;;;;;;;3.03;70.76;94326.97;5111083;28;20223;-79
2023/04/07 01:08:30;;;;;;;19.43;10.60;;;;;;;3.02;71.44;94319.47;5111562;28;20279;-79
2023/04/07 01:11:03;;;;;;;15.00;10.03;;;;;;;3.03;71.60;94316.69;5109702;28;20188;-79
2023/04/07 01:13:34;;;;;;;16.37;10.73;;;;;;;3.06;71.48;94318.13;5097026;28;20231;-79
2023/04/07 01:16:05;;;;;;;17.57;10.70;;;;;;;3.02;71.79;94316.91;5111604;28;20253;-79
2023/04/07 01:18:33;;;;;;;19.90;10.87;;;;;;;3.06;71.93;94311.22;5108327;28;20252;-79
2023/04/07 01:21:05;;;;;;;18.57;10.80;;;;;;;3.07;71.68;94312.81;5110570;28;20195;-79
2023/04/07 01:23:47;;;;;;;16.10;10.10;;;;;;;3.07;70.97;94312.00;5110777;28;20192;-79
2023/04/07 01:26:20;;;;;;;16.70;10.63;;;;;;;3.10;70.62;94314.22;5111745;28;20185;-80
2023/04/07 01:29:11;;;;;;;19.03;10.37;;;;;;;3.11;71.42;94308.91;5110698;28;20197;-79
2023/04/07 01:31:41;;;;;;;17.13;10.23;;;;;;;3.09;71.56;94315.97;5113217;28;20257;-79
2023/04/07 01:34:11;;;;;;;20.37;10.47;;;;;;;3.11;71.42;94320.94;5116438;28;20200;-79
2023/04/07 01:36:38;;;;;;;17.50;10.10;;;;;;;3.13;71.59;94312.09;5117782;28;20188;-80
2023/04/07 01:39:16;;;;;;;15.77;9.50;;;;;;;3.15;71.47;94312.69;5120232;28;20264;-80
2023/04/07 01:41:45;;;;;;;16.50;10.53;;;;;;;3.17;71.50;94312.53;5119451;28;20538;-79
2023/04/07 01:44:13;;;;;;;19.40;10.47;;;;;;;3.21;70.73;94303.47;5112722;28;20200;-80
2023/04/07 01:46:41;;;;;;;18.40;10.30;;;;;;;3.22;70.97;94300.75;5114943;28;20199;-79
2023/04/07 01:49:08;;;;;;;14.23;9.20;;;;;;;3.24;70.75;94305.69;5114177;28;20948;-79
2023/04/07 01:51:36;;;;;;;17.60;9.53;;;;;;;3.24;70.62;94303.91;5113980;28;20199;-79
2023/04/07 01:54:04;;;;;;;14.23;9.53;;;;;;;3.20;70.15;94297.53;5114049;28;20207;-79
2023/04/07 01:56:31;;;;;;;15.70;9.90;;;;;;;3.22;70.32;94293.03;5114116;28;20637;-79
2023/04/07 01:58:58;;;;;;;14.60;9.40;;;;;;;3.21;70.09;94294.00;5114144;27;20245;-79
2023/04/07 02:01:25;;;;;;;14.67;9.27;;;;;;;3.22;70.12;94298.16;5113721;28;20203;-79
2023/04/07 02:03:56;;;;;;;15.47;9.53;;;;;;;3.21;69.51;94293.22;5113819;28;20199;-78
2023/04/07 02:06:30;;;;;;;16.33;9.27;;;;;;;3.24;69.37;94298.78;5113689;28;20196;-79
2023/04/07 02:09:03;;;;;;;14.23;9.50;;;;;;;3.22;69.21;94294.81;5111583;28;20650;-78
2023/04/07 02:11:32;;;;;;;17.03;8.67;;;;;;;3.22;69.50;94298.16;5110050;28;20195;-78
2023/04/07 02:14:02;;;;;;;15.93;9.13;;;;;;;3.27;68.93;94297.63;5113762;28;20192;-78
2023/04/07 02:16:31;;;;;;;14.57;9.43;;;;;;;3.32;68.72;94292.72;5112464;28;20270;-78
2023/04/07 02:19:01;;;;;;;15.23;9.20;;;;;;;3.27;69.23;94303.56;5112502;28;20196;-78
2023/04/07 02:21:29;;;;;;;13.93;9.17;;;;;;;3.24;68.14;94293.66;5113445;28;20218;-77
2023/04/07 02:23:56;;;;;;;12.10;8.50;;;;;;;3.28;68.38;94302.59;5113020;28;20185;-77
2023/04/07 02:26:23;;;;;;;13.17;8.47;;;;;;;3.33;67.99;94302.03;5112659;28;20658;-78
2023/04/07 02:28:49;;;;;;;14.10;8.73;;;;;;;3.37;67.63;94290.44;5104610;28;20639;-78
2023/04/07 02:31:16;;;;;;;13.93;8.63;;;;;;;3.36;68.04;94299.09;5112967;28;20219;-78
2023/04/07 02:33:43;;;;;;;18.10;9.60;;;;;;;3.39;67.63;94298.72;5112735;28;20219;-77
2023/04/07 02:36:11;;;;;;;13.50;8.87;;;;;;;3.42;67.52;94300.94;5113219;28;20203;-78
2023/04/07 02:38:38;;;;;;;15.00;8.33;;;;;;;3.42;67.71;94298.38;5112973;28;20569;-78
2023/04/07 02:41:05;;;;;;;13.60;7.87;;;;;;;3.40;66.78;94290.84;5112740;28;20196;-78
2023/04/07 02:43:32;;;;;;;15.33;9.37;;;;;;;3.47;66.69;94296.03;5112815;28;20275;-78
2023/04/07 02:45:58;;;;;;;14.90;8.50;;;;;;;3.49;67.05;94309.50;5111544;28;20654;-78
2023/04/07 02:48:25;;;;;;;13.27;9.53;;;;;;;3.59;66.99;94309.19;5112157;28;20596;-77
2023/04/07 02:50:52;;;;;;;14.07;9.17;;;;;;;3.60;66.65;94310.78;5112243;28;20188;-77
2023/04/07 02:53:20;;;;;;;13.23;8.47;;;;;;;3.52;66.90;94305.78;5112428;28;20227;-77
2023/04/07 02:55:47;;;;;;;14.13;9.03;;;;;;;3.49;66.91;94304.38;5112412;28;20196;-78
2023/04/07 02:58:14;;;;;;;13.63;9.53;;;;;;;3.54;66.62;94312.31;5112634;28;20631;-77
2023/04/07 03:00:41;;;;;;;17.40;9.27;;;;;;;3.61;66.35;94308.03;5112489;28;20188;-77
2023/04/07 03:03:07;;;;;;;14.87;10.27;;;;;;;3.66;66.59;94312.63;5111989;28;20188;-78
2023/04/07 03:05:34;;;;;;;15.53;9.73;;;;;;;3.63;66.94;94318.94;5111937;28;20196;-78
2023/04/07 03:08:01;;;;;;;15.30;9.37;;;;;;;3.66;66.70;94317.75;5111547;28;20195;-78
2023/04/07 03:10:29;;;;;;;13.40;9.40;;;;;;;3.71;66.21;94325.69;5111722;28;20192;-78
2023/04/07 03:12:57;;;;;;;13.60;8.43;;;;;;;3.68;66.11;94321.72;5111731;28;20207;-79
2023/04/07 03:15:23;;;;;;;13.03;8.53;;;;;;;3.67;66.40;94319.34;5111477;28;20195;-79
2023/04/07 03:17:50;;;;;;;12.67;8.67;;;;;;;3.65;66.13;94311.03;5111836;28;20548;-78
2023/04/07 03:20:17;;;;;;;13.93;9.17;;;;;;;3.69;66.69;94313.06;5112674;28;20637;-80
2023/04/07 03:22:46;;;;;;;14.17;9.30;;;;;;;3.70;66.44;94301.78;5112015;28;20838;-80
2023/04/07 03:25:13;;;;;;;16.87;9.03;;;;;;;3.75;66.39;94319.22;5112189;28;20287;-80
2023/04/07 03:27:41;;;;;;;17.23;8.97;;;;;;;3.64;66.50;94299.94;5112294;28;20214;-81
2023/04/07 03:30:09;;;;;;;13.13;8.50;;;;;;;3.68;66.41;94311.47;5112154;28;20196;-81
2023/04/07 03:32:36;;;;;;;14.63;9.07;;;;;;;3.58;66.46;94310.97;5112101;28;20215;-80
2023/04/07 03:35:03;;;;;;;14.27;9.20;;;;;;;3.53;67.11;94307.34;5110152;28;20630;-80
2023/04/07 03:37:30;;;;;;;14.23;8.87;;;;;;;3.52;67.48;94310.91;5111609;28;20195;-79
2023/04/07 03:39:57;;;;;;;14.00;8.63;;;;;;;3.52;67.28;94306.56;5111505;28;20579;-79
2023/04/07 03:42:24;;;;;;;16.10;9.23;;;;;;;3.47;67.22;94313.22;5112054;28;20200;-80
2023/04/07 03:44:52;;;;;;;12.80;8.63;;;;;;;3.50;67.49;94310.28;5112280;28;20559;-81
2023/04/07 03:47:19;;;;;;;15.87;9.20;;;;;;;3.49;67.62;94318.97;5112008;28;20200;-80
2023/04/07 03:49:46;;;;;;;15.10;9.03;;;;;;;3.48;68.08;94313.06;5111597;28;20327;-80
2023/04/07 03:52:12;;;;;;;12.23;8.17;;;;;;;3.47;67.85;94318.34;5106551;28;20667;-80
2023/04/07 03:54:39;;;;;;;16.57;9.17;;;;;;;3.40;68.23;94318.31;5104756;28;20207;-82
2023/04/07 03:57:06;;;;;;;14.43;8.63;;;;;;;3.28;68.75;94304.34;5111546;28;20203;-82
2023/04/07 03:59:33;;;;;;;12.30;8.27;;;;;;;3.34;68.33;94319.84;5110875;27;20207;-83
2023/04/07 04:02:01;;;;;;;16.93;8.43;;;;;;;3.41;68.63;94312.97;5104482;28;20188;-82
2023/04/07 04:04:28;;;;;;;13.47;8.80;;;;;;;3.43;68.18;94320.50;5111596;28;20187;-82
2023/04/07 04:06:55;;;;;;;12.77;8.47;;;;;;;3.43;68.32;94326.41;5109866;28;20188;-82
2023/04/07 04:09:22;;;;;;;12.53;8.43;;;;;;;3.43;68.27;94316.16;5110840;28;20616;-82
2023/04/07 04:11:49;;;;;;;15.30;8.97;;;;;;;3.36;68.54;94317.88;5111584;28;20662;-82
2023/04/07 04:14:16;;;;;;;17.33;9.77;;;;;;;3.47;68.36;94323.50;5110757;28;20222;-81
2023/04/07 04:16:43;;;;;;;15.37;10.60;;;;;;;3.46;68.61;94337.31;5111108;28;20188;-81
2023/04/07 04:19:11;;;;;;;19.57;11.63;;;;;;;3.46;69.12;94319.34;5111293;28;20590;-79
2023/04/07 04:21:38;;;;;;;20.43;12.00;;;;;;;3.46;68.72;94333.00;5110479;28;20196;-81
2023/04/07 04:24:05;;;;;;;19.53;11.53;;;;;;;3.51;68.78;94319.59;5111185;28;20638;-82
2023/04/07 04:26:32;;;;;;;16.80;9.63;;;;;;;3.49;68.28;94330.06;5111708;28;20200;-81
2023/04/07 04:28:59;;;;;;;15.00;8.97;;;;;;;3.53;67.56;94333.03;5092683;28;20199;-80
2023/04/07 04:31:25;;;;;;;14.17;9.40;;;;;;;3.53;67.83;94328.69;5100532;28;20362;-81
2023/04/07 04:33:52;;;;;;;15.87;9.80;;;;;;;3.54;67.68;94338.00;5102262;28;20212;-80
2023/04/07 04:36:20;;;;;;;19.17;9.67;;;;;;;3.63;67.94;94338.69;5111283;28;20192;-81
2023/04/07 04:38:47;;;;;;;16.30;9.40;;;;;;;3.65;67.44;94339.28;5110766;28;20279;-81
2023/04/07 04:41:14;;;;;;;14.63;9.63;;;;;;;3.67;67.46;94334.75;5110961;28;20568;-81
2023/04/07 04:43:41;;;;;;;15.53;9.00;;;;;;;3.73;66.88;94328.88;5111078;28;20180;-82
2023/04/07 04:46:08;;;;;;;17.03;10.10;;;;;;;3.77;67.16;94345.53;5110692;28;20195;-81
2023/04/07 04:48:35;;;;;;;29.00;13.77;;;;;;;3.78;71.64;94347.13;5110351;28;20277;-81
2023/04/07 04:51:02;;;;;;;27.73;14.77;;;;;;;3.83;74.40;94344.78;5110865;28;20211;-78
2023/04/07 04:53:30;;;;;;;27.63;16.03;;;;;;;3.69;75.82;94351.59;5110482;28;20212;-81
2023/04/07 04:55:57;;;;;;;28.13;15.27;;;;;;;3.79;75.99;94356.41;5110928;28;20184;-80
2023/04/07 04:58:24;;;;;;;24.90;15.23;;;;;;;3.82;76.71;94350.91;5105736;28;20188;-79
2023/04/07 05:00:56;;;;;;;32.10;16.33;;;;;;;3.81;77.04;94355.25;5102028;28;20188;-79
2023/04/07 05:03:24;;;;;;;26.07;16.17;;;;;;;3.86;76.77;94352.94;5104719;28;20578;-80
2023/04/07 05:05:51;;;;;;;35.10;17.03;;;;;;;3.94;77.51;94364.84;5098743;28;20212;-80
2023/04/07 05:08:17;;;;;;;32.47;17.60;;;;;;;3.97;77.67;94360.16;5110217;28;20986;-81
2023/04/07 05:10:46;;;;;;;25.27;15.77;;;;;;;3.94;77.47;94365.66;5111807;28;20190;-79
2023/04/07 05:13:13;;;;;;;34.13;17.40;;;;;;;3.97;77.68;94370.44;5113246;28;20210;-79
2023/04/07 05:15:41;;;;;;;35.40;18.47;;;;;;;4.04;78.30;94377.41;5114070;28;20201;-78
2023/04/07 05:18:09;;;;;;;32.70;18.57;;;;;;;3.99;78.91;94367.66;5112791;28;20243;-79
2023/04/07 05:20:35;;;;;;;37.67;18.83;;;;;;;3.91;78.73;94371.16;5093774;28;20227;-79
2023/04/07 05:23:02;;;;;;;38.83;19.00;;;;;;;3.90;78.84;94372.13;5104415;28;20582;-79
2023/04/07 05:25:29;;;;;;;41.10;19.13;;;;;;;3.88;78.81;94381.00;5093866;28;20273;-79
2023/04/07 05:27:58;;;;;;;35.70;19.73;;;;;;;3.86;79.80;94378.63;5106268;28;20205;-79
2023/04/07 05:30:25;;;;;;;36.90;20.20;;;;;;;3.77;79.53;94374.59;5112810;28;20196;-79
2023/04/07 05:32:52;;;;;;;42.33;20.00;;;;;;;3.78;79.80;94365.88;5114131;28;20192;-79
2023/04/07 05:35:19;;;;;;;35.60;20.03;;;;;;;3.82;79.74;94382.53;5093484;28;20267;-79
2023/04/07 05:37:46;;;;;;;42.97;19.20;;;;;;;3.88;80.06;94379.25;5100547;28;20658;-78
2023/04/07 05:40:13;;;;;;;35.30;19.80;;;;;;;3.96;80.25;94386.03;5112716;28;20196;-80
2023/04/07 05:42:40;;;;;;;37.17;19.43;;;;;;;3.92;80.10;94352.22;5113835;28;20203;-80
2023/04/07 05:45:10;;;;;;;36.97;20.43;;;;;;;3.95;79.43;94376.75;5114170;28;20201;-79
2023/04/07 05:47:37;;;;;;;33.10;19.13;;;;;;;3.99;79.97;94383.88;5113675;28;20196;-79
2023/04/07 05:50:04;;;;;;;37.13;19.07;;;;;;;4.04;79.50;94379.97;5096473;28;20664;-79
2023/04/07 05:52:31;;;;;;;34.83;18.87;;;;;;;4.16;79.07;94383.63;5093724;28;20190;-79
2023/04/07 05:54:58;;;;;;;31.83;18.23;;;;;;;4.21;78.87;94382.13;5109148;28;20228;-79
2023/04/07 05:57:26;;;;;;;33.87;19.40;;;;;;;4.26;78.84;94384.91;5112744;28;20197;-82
2023/04/07 05:59:54;;;;;;;33.97;19.07;;;;;;;4.25;78.32;94370.44;5111705;28;20196;-82
2023/04/07 06:02:22;;;;;;;31.17;18.87;;;;;;;4.28;78.14;94379.56;5113959;28;20190;-82
2023/04/07 06:04:48;;;;;;;37.10;21.10;;;;;;;4.25;78.34;94377.38;5103222;28;20605;-82
2023/04/07 06:07:15;;;;;;;34.33;18.87;;;;;;;4.27;78.66;94371.06;5093183;28;20199;-81
2023/04/07 06:09:42;;;;;;;36.07;19.50;;;;;;;4.36;78.36;94376.84;5106965;28;20272;-81
2023/04/07 06:12:11;;;;;;;40.57;20.80;;;;;;;4.43;77.74;94378.50;5113260;28;20213;-79
2023/04/07 06:14:37;;;;;;;36.97;18.40;;;;;;;4.60;76.20;94384.16;5109785;28;20272;-78
2023/04/07 06:17:04;;;;;;;20.20;10.80;;;;;;;4.56;68.50;94386.31;5112466;28;20201;-78
2023/04/07 06:19:33;;;;;;;24.63;14.57;;;;;;;4.62;67.11;94384.75;5112674;28;20237;-77
2023/04/07 06:22:00;;;;;;;15.53;9.00;;;;;;;4.72;64.93;94377.50;5113087;28;20200;-78
2023/04/07 06:24:27;;;;;;;14.57;8.83;;;;;;;4.74;64.97;94370.38;5112848;28;20747;-78
2023/04/07 06:26:55;;;;;;;11.70;7.90;;;;;;;4.82;64.81;94383.09;5113456;28;20209;-78
2023/04/07 06:29:22;;;;;;;14.63;8.93;;;;;;;4.91;63.91;94383.75;5110240;28;20209;-77
2023/04/07 06:31:49;;;;;;;14.43;7.90;;;;;;;4.98;62.96;94393.13;5112620;28;20931;-79
2023/04/07 06:34:16;;;;;;;14.17;9.87;;;;;;;4.94;63.08;94399.63;5105198;28;20218;-78
2023/04/07 06:36:44;;;;;;;18.57;9.53;;;;;;;4.98;62.99;94392.31;5092973;28;20775;-79
2023/04/07 06:39:11;;;;;;;22.07;11.70;;;;;;;5.02;63.85;94396.13;5102470;28;20211;-77
2023/04/07 06:41:41;;;;;;;21.77;13.50;;;;;;;5.12;62.95;94393.97;5112981;28;20199;-78
2023/04/07 06:44:09;;;;;;;24.37;12.97;;;;;;;5.19;63.12;94399.97;5111980;28;20220;-77
2023/04/07 06:46:36;;;;;;;28.30;16.23;;;;;;;5.29;62.63;94394.44;5111919;28;20198;-77
2023/04/07 06:49:03;;;;;;;18.20;11.80;;;;;;;5.35;63.28;94394.47;5110821;28;20253;-78
2023/04/07 06:51:30;;;;;;;25.07;16.33;;;;;;;5.38;62.67;94386.34;5112061;28;20597;-78
2023/04/07 06:53:59;;;;;;;24.27;14.40;;;;;;;5.47;61.80;94387.78;5112341;28;20249;-78
2023/04/07 06:56:26;;;;;;;25.63;14.60;;;;;;;5.56;62.14;94396.13;5112202;28;20252;-77
2023/04/07 06:58:53;;;;;;;17.37;11.00;;;;;;;5.62;61.36;94395.38;5107554;28;20657;-78
2023/04/07 07:01:20;;;;;;;23.13;11.83;;;;;;;5.66;61.54;94392.19;5111987;28;20194;-79
2023/04/07 07:03:47;;;;;;;19.23;9.43;;;;;;;5.63;61.18;94391.78;5112309;28;20197;-79
2023/04/07 07:06:14;;;;;;;16.80;9.97;;;;;;;5.70;61.83;94402.91;5112396;28;20660;-81
2023/04/07 07:08:41;;;;;;;29.33;15.03;;;;;;;5.74;62.17;94388.66;5111582;28;20210;-81
2023/04/07 07:11:09;;;;;;;14.67;8.53;;;;;;;5.90;61.04;94403.78;5112883;28;20624;-81
2023/04/07 07:13:36;;;;;;;22.17;9.33;;;;;;;5.99;60.21;94414.72;5112891;28;20310;-82
2023/04/07 07:16:02;;;;;;;26.33;12.23;;;;;;;6.02;60.38;94404.00;5102548;28;20575;-81
2023/04/07 07:18:29;;;;;;;17.03;8.77;;;;;;;6.04;60.81;94420.06;5112036;28;20241;-81
2023/04/07 07:20:56;;;;;;;15.17;8.93;;;;;;;6.14;60.37;94405.03;5093248;28;20207;-81
2023/04/07 07:23:23;;;;;;;18.60;9.63;;;;;;;6.10;60.92;94411.56;5092320;28;20210;-81
2023/04/07 07:25:49;;;;;;;18.30;9.30;;;;;;;6.11;60.06;94415.75;5109386;28;20206;-79
2023/04/07 07:28:18;;;;;;;15.73;7.80;;;;;;;6.05;59.91;94403.63;5102092;27;20693;-79
2023/04/07 07:30:45;;;;;;;17.03;8.57;;;;;;;6.12;60.39;94412.94;5093125;28;20200;-78
2023/04/07 07:33:12;;;;;;;19.30;8.10;;;;;;;6.11;60.04;94413.97;5107203;28;20202;-78
2023/04/07 07:35:39;;;;;;;13.97;8.47;;;;;;;6.16;60.33;94403.03;5111371;28;20711;-79
2023/04/07 07:38:06;;;;;;;14.87;8.60;;;;;;;6.31;59.90;94423.50;5112545;28;20183;-78
2023/04/07 07:40:33;;;;;;;12.20;8.00;;;;;;;6.32;59.22;94428.44;5112121;28;20199;-78
2023/04/07 07:43:00;;;;;;;15.20;9.30;;;;;;;6.24;58.79;94411.38;5105346;28;20195;-79
2023/04/07 07:45:29;;;;;;;11.60;7.77;;;;;;;6.25;58.67;94423.31;5091464;28;20731;-80
2023/04/07 07:47:58;;;;;;;12.03;7.87;;;;;;;6.22;59.42;94423.69;5096899;28;20666;-79
2023/04/07 07:50:25;;;;;;;13.03;8.70;;;;;;;6.34;60.08;94425.69;5109158;28;20192;-80
2023/04/07 07:52:52;;;;;;;10.23;7.50;;;;;;;6.45;57.75;94428.47;5110653;28;20191;-79
2023/04/07 07:55:19;;;;;;;12.63;7.87;;;;;;;6.49;58.49;94419.34;5110422;28;20208;-80
2023/04/07 07:57:46;;;;;;;11.33;7.30;;;;;;;6.60;57.76;94423.91;5111296;28;20573;-79
2023/04/07 08:00:14;;;;;;;13.03;8.47;;;;;;;6.66;57.26;94427.50;5111495;28;20579;-80
2023/04/07 08:02:42;;;;;;;13.63;8.17;;;;;;;6.75;58.16;94421.13;5102932;27;20203;-82
2023/04/07 08:05:10;;;;;;;17.10;8.90;;;;;;;6.76;57.83;94422.69;5097721;28;20206;-81
2023/04/07 08:07:37;;;;;;;14.43;7.57;;;;;;;6.94;57.16;94424.66;5110444;28;20619;-80
2023/04/07 08:10:06;;;;;;;14.60;7.57;;;;;;;6.96;57.30;94417.50;5111218;28;20595;-80
2023/04/07 08:12:33;;;;;;;15.87;9.53;;;;;;;7.07;57.24;94427.25;5110237;28;20640;-81
2023/04/07 08:15:00;;;;;;;16.97;9.03;;;;;;;7.23;58.16;94432.78;5111784;28;20227;-81
2023/04/07 08:17:26;;;;;;;10.67;6.87;;;;;;;7.28;57.13;94427.78;5110856;28;20222;-79
2023/04/07 08:19:56;;;;;;;12.63;7.13;;;;;;;7.00;56.97;94429.84;5111223;28;20199;-81
2023/04/07 08:22:25;;;;;;;9.90;7.17;;;;;;;6.84;57.17;94430.22;5105335;28;20661;-79
2023/04/07 08:24:52;;;;;;;15.43;7.70;;;;;;;6.56;58.31;94432.25;5112258;28;20196;-80
2023/04/07 08:27:20;;;;;;;12.50;7.47;;;;;;;6.57;58.74;94433.84;5110184;28;20196;-81
2023/04/07 08:29:49;;;;;;;17.83;8.77;;;;;;;6.67;58.78;94424.69;5104671;28;20286;-79
2023/04/07 08:32:16;;;;;;;14.40;8.43;;;;;;;6.68;58.58;94439.19;5104591;28;20209;-80
2023/04/07 08:34:43;;;;;;;16.37;11.27;;;;;;;6.73;58.37;94430.84;5110973;28;20268;-79
2023/04/07 08:37:12;;;;;;;12.17;8.50;;;;;;;6.77;58.42;94430.25;5114165;28;20193;-83
2023/04/07 08:39:39;;;;;;;13.50;8.20;;;;;;;6.82;58.25;94429.66;5112264;28;20196;-80
2023/04/07 08:42:07;;;;;;;13.90;9.53;;;;;;;6.91;58.34;94432.81;5103227;28;20191;-80
2023/04/07 08:44:37;;;;;;;18.50;10.80;;;;;;;6.95;57.93;94434.81;5112462;28;20198;-81
2023/04/07 08:47:07;;;;;;;12.27;8.20;;;;;;;7.08;57.46;94437.38;5118710;28;20197;-80
2023/04/07 08:49:36;;;;;;;10.30;6.90;;;;;;;7.19;56.76;94430.78;5118368;28;20273;-79
2023/04/07 08:52:10;;;;;;;10.67;6.90;;;;;;;7.16;56.38;94434.56;5117138;28;20191;-81
2023/04/07 08:54:38;;;;;;;18.20;9.27;;;;;;;7.19;57.26;94441.91;5116172;28;20196;-81
2023/04/07 08:57:07;;;;;;;13.73;8.77;;;;;;;7.07;56.70;94443.53;5115803;28;20223;-82
2023/04/07 08:59:35;;;;;;;14.10;8.30;;;;;;;6.85;58.21;94449.91;5116013;28;20196;-79
2023/04/07 09:02:02;;;;;;;11.73;8.20;;;;;;;6.94;57.22;94433.22;5113197;28;20203;-79
2023/04/07 09:04:29;;;;;;;12.63;8.43;;;;;;;7.12;56.95;94430.81;5115432;28;20203;-80
2023/04/07 09:06:56;;;;;;;13.10;9.07;;;;;;;7.32;57.01;94423.81;5116682;27;20687;-79
2023/04/07 09:09:23;;;;;;;13.30;8.67;;;;;;;7.46;58.19;94427.13;5115915;28;20191;-81
2023/04/07 09:11:52;;;;;;;15.30;9.67;;;;;;;7.53;57.05;94437.47;5115020;28;20196;-80
2023/04/07 09:14:19;;;;;;;13.33;9.13;;;;;;;7.59;55.83;94437.41;5115529;28;20698;-80
2023/04/07 09:16:46;;;;;;;13.83;9.63;;;;;;;7.70;56.29;94421.28;5115522;28;20188;-80
2023/04/07 09:19:13;;;;;;;16.80;9.30;;;;;;;7.95;56.71;94437.66;5115966;28;20196;-81
2023/04/07 09:21:51;;;;;;;13.13;9.17;;;;;;;8.26;55.81;94442.06;5111734;28;20192;-81
2023/04/07 09:24:23;;;;;;;18.07;9.57;;;;;;;8.43;54.23;94442.38;5095486;28;20184;-81
2023/04/07 09:26:51;;;;;;;15.13;9.83;;;;;;;8.50;54.12;94436.16;5098315;28;20203;-80
2023/04/07 09:29:21;;;;;;;11.47;8.43;;;;;;;8.39;53.50;94429.09;5096584;28;20686;-81
2023/04/07 09:31:50;;;;;;;17.93;10.77;;;;;;;8.19;54.37;94420.63;5105400;27;20203;-81
2023/04/07 09:34:35;;;;;;;13.73;9.27;;;;;;;8.31;53.27;94450.03;5111272;28;20576;-81
2023/04/07 09:37:03;;;;;;;14.50;8.57;;;;;;;8.34;53.85;94447.03;5111807;28;20199;-81
2023/04/07 09:39:30;;;;;;;15.17;9.03;;;;;;;8.17;54.58;94453.66;5109360;28;20191;-80
2023/04/07 09:41:59;;;;;;;15.23;8.63;;;;;;;7.97;53.90;94458.16;5114734;28;20257;-82
2023/04/07 09:44:26;;;;;;;14.70;10.17;;;;;;;7.89;55.66;94456.59;5113606;28;20249;-82
2023/04/07 09:46:55;;;;;;;16.50;10.10;;;;;;;7.76;55.75;94441.13;5114667;28;20227;-83
2023/04/07 09:49:23;;;;;;;14.00;9.03;;;;;;;7.86;56.02;94436.31;5114510;28;20224;-82
2023/04/07 09:51:56;;;;;;;16.13;9.20;;;;;;;7.86;56.71;94444.06;5114476;28;20204;-84
2023/04/07 09:54:34;;;;;;;11.60;8.57;;;;;;;8.02;55.02;94443.59;5111427;28;20762;-84
2023/04/07 09:57:04;;;;;;;12.27;8.00;;;;;;;8.04;55.31;94456.34;5112988;28;20215;-81
2023/04/07 09:59:32;;;;;;;12.17;8.53;;;;;;;8.02;56.61;94465.31;5114541;28;20197;-82
2023/04/07 10:02:00;;;;;;;12.77;8.53;;;;;;;8.09;55.91;94453.13;5114295;28;20192;-82
2023/04/07 10:04:27;;;;;;;11.37;7.93;;;;;;;7.94;55.61;94456.78;5113275;28;20666;-82
2023/04/07 10:06:55;;;;;;;12.97;9.07;;;;;;;8.00;55.90;94465.50;5115246;28;20192;-82
2023/04/07 10:09:27;;;;;;;13.63;8.70;;;;;;;8.09;55.92;94455.69;5114590;28;20199;-82
2023/04/07 10:11:56;;;;;;;15.33;9.37;;;;;;;8.04;56.35;94458.13;5114824;28;20200;-81
2023/04/07 10:14:27;;;;;;;11.70;8.50;;;;;;;7.95;55.92;94460.97;5100335;28;20199;-82
2023/04/07 10:16:54;;;;;;;11.43;8.43;;;;;;;7.82;55.63;94452.47;5109029;28;20199;-82
2023/04/07 10:19:23;;;;;;;11.83;8.00;;;;;;;7.58;56.33;94443.59;5114355;28;20196;-81
2023/04/07 10:21:53;;;;;;;10.47;8.30;;;;;;;7.56;56.80;94437.81;5100735;28;20200;-82
2023/04/07 10:24:34;;;;;;;15.03;8.77;;;;;;;7.73;56.61;94446.75;5112310;28;20204;-85
2023/04/07 10:27:06;;;;;;;10.57;7.83;;;;;;;7.69;56.28;94458.47;5114129;28;20188;-81
2023/04/07 10:29:43;;;;;;;13.73;8.90;;;;;;;7.66;57.25;94440.78;5114565;28;20200;-82
2023/04/07 10:32:10;;;;;;;17.50;9.30;;;;;;;7.77;58.19;94441.94;5114056;28;20191;-81
2023/04/07 10:34:57;;;;;;;16.03;8.50;;;;;;;7.75;59.68;94451.69;5112304;28;20243;-81
2023/04/07 10:37:25;;;;;;;11.13;7.63;;;;;;;7.86;59.36;94461.38;5094539;28;20644;-82
2023/04/07 10:40:12;;;;;;;14.40;8.90;;;;;;;7.86;59.51;94449.25;5113461;28;20635;-81
2023/04/07 10:42:46;;;;;;;13.20;9.10;;;;;;;7.82;60.43;94462.81;5112351;28;20196;-83
2023/04/07 10:45:15;;;;;;;12.60;9.10;;;;;;;7.92;60.54;94461.38;5107076;28;20211;-81
2023/04/07 10:48:12;;;;;;;13.33;8.17;;;;;;;8.13;60.47;94456.88;5113408;28;20692;-83
2023/04/07 10:50:39;;;;;;;14.00;8.20;;;;;;;8.17;59.64;94463.22;5104856;28;20204;-81
2023/04/07 10:53:08;;;;;;;10.30;7.60;;;;;;;8.26;58.93;94460.19;5110158;28;20185;-78
2023/04/07 10:55:37;;;;;;;12.33;8.33;;;;;;;8.29;59.02;94451.25;5113187;28;20218;-82
2023/04/07 10:58:24;;;;;;;12.27;8.17;;;;;;;8.51;59.33;94461.03;5112495;28;20687;-77
2023/04/07 11:01:30;;;;;;;13.97;8.90;;;;;;;8.70;59.50;94472.28;5107804;28;20268;-82
2023/04/07 11:04:03;;;;;;;13.13;8.20;;;;;;;8.73;57.95;94460.72;5111610;28;20196;-82
2023/04/07 11:06:30;;;;;;;11.00;8.03;;;;;;;8.82;58.37;94473.19;5112301;28;20199;-83
2023/04/07 11:08:57;;;;;;;13.37;8.77;;;;;;;8.63;57.89;94460.41;5112913;27;20270;-82
2023/04/07 11:11:39;;;;;;;14.10;8.23;;;;;;;8.64;58.59;94467.94;5107508;28;20193;-82
2023/04/07 11:14:06;;;;;;;13.27;8.80;;;;;;;8.66;59.30;94475.50;5094979;28;20197;-82
2023/04/07 11:16:42;;;;;;;13.33;8.30;;;;;;;8.73;59.50;94469.28;5108830;28;20880;-82
2023/04/07 11:19:10;;;;;;;17.00;9.27;;;;;;;8.78;59.43;94468.63;5105899;28;20232;-82
2023/04/07 11:21:38;;;;;;;15.40;9.40;;;;;;;8.85;60.01;94464.19;5112713;28;20191;-82
2023/04/07 11:24:05;;;;;;;12.47;9.17;;;;;;;8.69;59.34;94439.59;5100396;28;20192;-82
2023/04/07 11:26:38;;;;;;;13.03;9.00;;;;;;;8.90;60.04;94467.75;5112383;28;20220;-81
2023/04/07 11:29:06;;;;;;;12.83;9.07;;;;;;;8.87;59.30;94470.75;5110185;28;20246;-82
2023/04/07 11:31:34;;;;;;;11.13;8.40;;;;;;;8.66;59.21;94452.22;5111782;28;20684;-82
2023/04/07 11:34:03;;;;;;;12.33;8.30;;;;;;;8.68;58.82;94476.88;5109757;28;20573;-81
2023/04/07 11:36:33;;;;;;;15.17;8.90;;;;;;;8.82;59.89;94475.00;5112270;28;20615;-85
2023/04/07 11:39:01;;;;;;;13.07;8.70;;;;;;;8.84;60.16;94460.00;5112363;28;20200;-83